sensor_id;sensor_type;location;lat;lon;timestamp;P1;durP1;ratioP1;P2;durP2;ratioP2
54919;SDS011;63804;53.120;8.764;2022-10-30T00:00:28;18.13;;;9.73;;
54919;SDS011;63804;53.120;8.764;2022-10-30T00:02:54;19.48;;;9.98;;
54919;SDS011;63804;53.120;8.764;2022-10-30T00:05:19;18.25;;;10.32;;
54919;SDS011;63804;53.120;8.764;2022-10-30T00:07:46;18.30;;;9.13;;
54919;SDS011;63804;53.120;8.764;2022-10-30T00:10:12;26.73;;;9.75;;
54919;SDS011;63804;53.120;8.764;2022-10-30T00:12:38;19.35;;;10.13;;
54919;SDS011;63804;53.120;8.764;2022-10-30T00:15:03;19.42;;;9.68;;
54919;SDS011;63804;53.120;8.764;2022-10-30T00:17:30;20.13;;;9.77;;
54919;SDS011;63804;53.120;8.764;2022-10-30T00:19:55;18.00;;;9.30;;
54919;SDS011;63804;53.120;8.764;2022-10-30T00:22:21;21.48;;;10.13;;
54919;SDS011;63804;53.120;8.764;2022-10-30T00:24:47;19.15;;;10.02;;
54919;SDS011;63804;53.120;8.764;2022-10-30T00:27:12;18.95;;;10.02;;
54919;SDS011;63804;53.120;8.764;2022-10-30T00:29:38;20.77;;;9.82;;
54919;SDS011;63804;53.120;8.764;2022-10-30T00:32:04;21.15;;;9.50;;
54919;SDS011;63804;53.120;8.764;2022-10-30T00:34:29;17.77;;;9.57;;
54919;SDS011;63804;53.120;8.764;2022-10-30T00:36:55;16.40;;;9.80;;
54919;SDS011;63804;53.120;8.764;2022-10-30T00:39:20;17.35;;;9.35;;
54919;SDS011;63804;53.120;8.764;2022-10-30T00:41:46;18.98;;;10.48;;
54919;SDS011;63804;53.120;8.764;2022-10-30T00:47:12;17.40;;;9.07;;
54919;SDS011;63804;53.120;8.764;2022-10-30T00:52:40;16.67;;;9.02;;
54919;SDS011;63804;53.120;8.764;2022-10-30T00:55:14;20.00;;;9.80;;
54919;SDS011;63804;53.120;8.764;2022-10-30T00:57:43;21.08;;;9.57;;
54919;SDS011;63804;53.120;8.764;2022-10-30T01:00:09;17.33;;;8.95;;
54919;SDS011;63804;53.120;8.764;2022-10-30T01:02:37;16.67;;;8.40;;
54919;SDS011;63804;53.120;8.764;2022-10-30T01:05:04;20.90;;;9.55;;
54919;SDS011;63804;53.120;8.764;2022-10-30T01:07:30;19.38;;;9.18;;
54919;SDS011;63804;53.120;8.764;2022-10-30T01:09:56;18.92;;;8.85;;
54919;SDS011;63804;53.120;8.764;2022-10-30T01:12:22;19.88;;;9.02;;
54919;SDS011;63804;53.120;8.764;2022-10-30T01:14:52;18.52;;;8.88;;
54919;SDS011;63804;53.120;8.764;2022-10-30T01:17:40;19.15;;;8.13;;
54919;SDS011;63804;53.120;8.764;2022-10-30T01:20:19;18.55;;;8.85;;
54919;SDS011;63804;53.120;8.764;2022-10-30T01:23:15;18.67;;;8.63;;
54919;SDS011;63804;53.120;8.764;2022-10-30T01:34:38;19.67;;;8.23;;
54919;SDS011;63804;53.120;8.764;2022-10-30T01:39:39;13.32;;;7.57;;
54919;SDS011;63804;53.120;8.764;2022-10-30T01:42:09;21.33;;;9.27;;
54919;SDS011;63804;53.120;8.764;2022-10-30T01:44:55;16.85;;;8.10;;
54919;SDS011;63804;53.120;8.764;2022-10-30T01:47:25;19.13;;;9.00;;
54919;SDS011;63804;53.120;8.764;2022-10-30T01:56:12;20.60;;;8.70;;
54919;SDS011;63804;53.120;8.764;2022-10-30T01:59:08;20.58;;;8.45;;
54919;SDS011;63804;53.120;8.764;2022-10-30T02:01:39;19.30;;;8.45;;
54919;SDS011;63804;53.120;8.764;2022-10-30T02:04:05;18.55;;;7.93;;
54919;SDS011;63804;53.120;8.764;2022-10-30T02:06:34;17.17;;;8.02;;
54919;SDS011;63804;53.120;8.764;2022-10-30T02:09:00;16.23;;;7.32;;
54919;SDS011;63804;53.120;8.764;2022-10-30T02:11:26;17.23;;;7.65;;
54919;SDS011;63804;53.120;8.764;2022-10-30T02:13:53;20.45;;;7.53;;
54919;SDS011;63804;53.120;8.764;2022-10-30T02:16:21;15.52;;;8.05;;
54919;SDS011;63804;53.120;8.764;2022-10-30T02:18:47;20.77;;;8.65;;
54919;SDS011;63804;53.120;8.764;2022-10-30T02:21:13;19.08;;;8.45;;
54919;SDS011;63804;53.120;8.764;2022-10-30T02:23:39;15.10;;;7.32;;
54919;SDS011;63804;53.120;8.764;2022-10-30T02:26:04;15.02;;;7.55;;
54919;SDS011;63804;53.120;8.764;2022-10-30T02:28:30;17.77;;;7.65;;
54919;SDS011;63804;53.120;8.764;2022-10-30T02:30:56;16.85;;;7.47;;
54919;SDS011;63804;53.120;8.764;2022-10-30T02:33:22;16.88;;;7.65;;
54919;SDS011;63804;53.120;8.764;2022-10-30T02:35:49;17.75;;;8.10;;
54919;SDS011;63804;53.120;8.764;2022-10-30T02:38:15;16.55;;;7.22;;
54919;SDS011;63804;53.120;8.764;2022-10-30T02:40:41;18.00;;;6.95;;
54919;SDS011;63804;53.120;8.764;2022-10-30T02:43:06;23.33;;;7.85;;
54919;SDS011;63804;53.120;8.764;2022-10-30T02:45:32;18.17;;;7.07;;
54919;SDS011;63804;53.120;8.764;2022-10-30T02:47:58;16.02;;;7.43;;
54919;SDS011;63804;53.120;8.764;2022-10-30T02:50:25;15.98;;;7.28;;
54919;SDS011;63804;53.120;8.764;2022-10-30T02:52:51;19.27;;;7.00;;
54919;SDS011;63804;53.120;8.764;2022-10-30T02:55:16;15.18;;;7.35;;
54919;SDS011;63804;53.120;8.764;2022-10-30T02:57:42;19.30;;;7.53;;
54919;SDS011;63804;53.120;8.764;2022-10-30T03:00:08;16.65;;;7.80;;
54919;SDS011;63804;53.120;8.764;2022-10-30T03:02:34;13.95;;;7.28;;
54919;SDS011;63804;53.120;8.764;2022-10-30T03:04:59;17.35;;;7.25;;
54919;SDS011;63804;53.120;8.764;2022-10-30T03:07:25;17.27;;;7.32;;
54919;SDS011;63804;53.120;8.764;2022-10-30T03:09:51;17.77;;;7.18;;
54919;SDS011;63804;53.120;8.764;2022-10-30T03:12:18;19.08;;;7.18;;
54919;SDS011;63804;53.120;8.764;2022-10-30T03:14:44;17.58;;;7.65;;
54919;SDS011;63804;53.120;8.764;2022-10-30T03:17:16;18.67;;;7.90;;
54919;SDS011;63804;53.120;8.764;2022-10-30T03:19:41;19.67;;;7.55;;
54919;SDS011;63804;53.120;8.764;2022-10-30T03:22:07;17.77;;;7.25;;
54919;SDS011;63804;53.120;8.764;2022-10-30T03:24:33;18.40;;;7.22;;
54919;SDS011;63804;53.120;8.764;2022-10-30T03:26:58;16.98;;;7.18;;
54919;SDS011;63804;53.120;8.764;2022-10-30T03:29:24;16.73;;;7.95;;
54919;SDS011;63804;53.120;8.764;2022-10-30T03:31:49;17.10;;;8.30;;
54919;SDS011;63804;53.120;8.764;2022-10-30T03:34:15;14.00;;;7.55;;
54919;SDS011;63804;53.120;8.764;2022-10-30T03:36:40;16.45;;;7.40;;
54919;SDS011;63804;53.120;8.764;2022-10-30T03:39:06;16.10;;;8.05;;
54919;SDS011;63804;53.120;8.764;2022-10-30T03:41:32;14.10;;;6.95;;
54919;SDS011;63804;53.120;8.764;2022-10-30T03:43:57;17.63;;;7.55;;
54919;SDS011;63804;53.120;8.764;2022-10-30T03:46:29;17.83;;;7.93;;
54919;SDS011;63804;53.120;8.764;2022-10-30T03:48:55;17.83;;;6.82;;
54919;SDS011;63804;53.120;8.764;2022-10-30T03:51:21;15.48;;;7.65;;
54919;SDS011;63804;53.120;8.764;2022-10-30T03:53:46;16.02;;;7.38;;
54919;SDS011;63804;53.120;8.764;2022-10-30T03:56:12;19.95;;;7.93;;
54919;SDS011;63804;53.120;8.764;2022-10-30T03:58:37;15.48;;;7.25;;
54919;SDS011;63804;53.120;8.764;2022-10-30T04:01:04;16.75;;;6.43;;
54919;SDS011;63804;53.120;8.764;2022-10-30T04:03:31;17.00;;;6.57;;
54919;SDS011;63804;53.120;8.764;2022-10-30T04:05:57;15.85;;;6.82;;
54919;SDS011;63804;53.120;8.764;2022-10-30T04:08:22;16.65;;;7.68;;
54919;SDS011;63804;53.120;8.764;2022-10-30T04:10:48;16.80;;;6.90;;
54919;SDS011;63804;53.120;8.764;2022-10-30T04:13:14;15.82;;;6.85;;
54919;SDS011;63804;53.120;8.764;2022-10-30T04:15:41;19.50;;;7.28;;
54919;SDS011;63804;53.120;8.764;2022-10-30T04:18:11;19.98;;;7.45;;
54919;SDS011;63804;53.120;8.764;2022-10-30T04:20:37;18.15;;;7.88;;
54919;SDS011;63804;53.120;8.764;2022-10-30T04:23:03;19.50;;;7.07;;
54919;SDS011;63804;53.120;8.764;2022-10-30T04:25:30;19.95;;;7.53;;
54919;SDS011;63804;53.120;8.764;2022-10-30T04:27:58;22.85;;;7.60;;
54919;SDS011;63804;53.120;8.764;2022-10-30T04:30:23;21.70;;;7.30;;
54919;SDS011;63804;53.120;8.764;2022-10-30T04:32:52;15.98;;;7.03;;
54919;SDS011;63804;53.120;8.764;2022-10-30T04:35:19;15.30;;;7.00;;
54919;SDS011;63804;53.120;8.764;2022-10-30T04:40:21;16.63;;;7.43;;
54919;SDS011;63804;53.120;8.764;2022-10-30T04:42:48;20.52;;;7.43;;
54919;SDS011;63804;53.120;8.764;2022-10-30T04:45:14;14.98;;;6.10;;
54919;SDS011;63804;53.120;8.764;2022-10-30T04:47:40;18.40;;;7.32;;
54919;SDS011;63804;53.120;8.764;2022-10-30T04:50:05;19.00;;;7.30;;
54919;SDS011;63804;53.120;8.764;2022-10-30T04:52:32;20.45;;;8.07;;
54919;SDS011;63804;53.120;8.764;2022-10-30T04:54:57;15.45;;;7.20;;
54919;SDS011;63804;53.120;8.764;2022-10-30T04:57:23;17.38;;;7.97;;
54919;SDS011;63804;53.120;8.764;2022-10-30T04:59:49;16.63;;;7.43;;
54919;SDS011;63804;53.120;8.764;2022-10-30T05:02:14;19.55;;;8.10;;
54919;SDS011;63804;53.120;8.764;2022-10-30T05:04:40;15.05;;;7.57;;
54919;SDS011;63804;53.120;8.764;2022-10-30T05:07:06;18.33;;;7.63;;
54919;SDS011;63804;53.120;8.764;2022-10-30T05:09:31;20.52;;;7.85;;
54919;SDS011;63804;53.120;8.764;2022-10-30T05:11:57;20.27;;;8.50;;
54919;SDS011;63804;53.120;8.764;2022-10-30T05:14:23;17.67;;;7.35;;
54919;SDS011;63804;53.120;8.764;2022-10-30T05:16:49;19.23;;;8.15;;
54919;SDS011;63804;53.120;8.764;2022-10-30T05:19:14;17.60;;;7.30;;
54919;SDS011;63804;53.120;8.764;2022-10-30T05:21:40;16.52;;;7.40;;
54919;SDS011;63804;53.120;8.764;2022-10-30T05:24:05;17.15;;;7.65;;
54919;SDS011;63804;53.120;8.764;2022-10-30T05:26:31;18.35;;;7.53;;
54919;SDS011;63804;53.120;8.764;2022-10-30T05:28:57;16.85;;;7.30;;
54919;SDS011;63804;53.120;8.764;2022-10-30T05:31:22;16.50;;;7.35;;
54919;SDS011;63804;53.120;8.764;2022-10-30T05:33:48;16.95;;;6.80;;
54919;SDS011;63804;53.120;8.764;2022-10-30T05:36:13;14.70;;;7.25;;
54919;SDS011;63804;53.120;8.764;2022-10-30T05:38:39;18.92;;;8.38;;
54919;SDS011;63804;53.120;8.764;2022-10-30T05:41:05;18.10;;;8.48;;
54919;SDS011;63804;53.120;8.764;2022-10-30T05:43:30;17.60;;;7.07;;
54919;SDS011;63804;53.120;8.764;2022-10-30T05:45:56;17.33;;;8.18;;
54919;SDS011;63804;53.120;8.764;2022-10-30T05:48:21;24.25;;;8.32;;
54919;SDS011;63804;53.120;8.764;2022-10-30T05:50:47;23.30;;;8.32;;
54919;SDS011;63804;53.120;8.764;2022-10-30T05:53:12;16.50;;;7.65;;
54919;SDS011;63804;53.120;8.764;2022-10-30T05:55:38;15.23;;;7.85;;
54919;SDS011;63804;53.120;8.764;2022-10-30T05:58:05;19.77;;;8.85;;
54919;SDS011;63804;53.120;8.764;2022-10-30T06:00:32;17.58;;;7.32;;
54919;SDS011;63804;53.120;8.764;2022-10-30T06:03:03;18.00;;;8.73;;
54919;SDS011;63804;53.120;8.764;2022-10-30T06:05:32;20.48;;;8.82;;
54919;SDS011;63804;53.120;8.764;2022-10-30T06:07:59;18.15;;;8.40;;
54919;SDS011;63804;53.120;8.764;2022-10-30T06:10:26;23.77;;;9.80;;
54919;SDS011;63804;53.120;8.764;2022-10-30T06:12:55;18.65;;;9.25;;
54919;SDS011;63804;53.120;8.764;2022-10-30T06:15:25;16.40;;;8.98;;
54919;SDS011;63804;53.120;8.764;2022-10-30T06:17:52;21.63;;;8.38;;
54919;SDS011;63804;53.120;8.764;2022-10-30T06:20:18;19.50;;;7.70;;
54919;SDS011;63804;53.120;8.764;2022-10-30T06:25:23;19.33;;;8.45;;
54919;SDS011;63804;53.120;8.764;2022-10-30T06:27:49;21.20;;;8.35;;
54919;SDS011;63804;53.120;8.764;2022-10-30T06:30:15;15.85;;;7.60;;
54919;SDS011;63804;53.120;8.764;2022-10-30T06:32:41;14.90;;;7.72;;
54919;SDS011;63804;53.120;8.764;2022-10-30T06:35:07;18.95;;;7.85;;
54919;SDS011;63804;53.120;8.764;2022-10-30T06:37:33;18.13;;;8.30;;
54919;SDS011;63804;53.120;8.764;2022-10-30T06:39:59;21.02;;;8.23;;
54919;SDS011;63804;53.120;8.764;2022-10-30T06:42:25;16.58;;;8.02;;
54919;SDS011;63804;53.120;8.764;2022-10-30T06:44:51;18.15;;;8.57;;
54919;SDS011;63804;53.120;8.764;2022-10-30T06:47:17;19.65;;;8.23;;
54919;SDS011;63804;53.120;8.764;2022-10-30T06:49:42;20.42;;;10.07;;
54919;SDS011;63804;53.120;8.764;2022-10-30T06:52:08;17.63;;;9.38;;
54919;SDS011;63804;53.120;8.764;2022-10-30T06:54:33;20.20;;;8.35;;
54919;SDS011;63804;53.120;8.764;2022-10-30T06:56:59;20.73;;;8.55;;
54919;SDS011;63804;53.120;8.764;2022-10-30T06:59:25;20.88;;;8.57;;
54919;SDS011;63804;53.120;8.764;2022-10-30T07:01:50;23.92;;;9.20;;
54919;SDS011;63804;53.120;8.764;2022-10-30T07:04:16;17.33;;;8.40;;
54919;SDS011;63804;53.120;8.764;2022-10-30T07:06:41;19.08;;;8.57;;
54919;SDS011;63804;53.120;8.764;2022-10-30T07:09:07;19.30;;;7.97;;
54919;SDS011;63804;53.120;8.764;2022-10-30T07:11:32;23.35;;;9.52;;
54919;SDS011;63804;53.120;8.764;2022-10-30T07:13:58;20.33;;;9.43;;
54919;SDS011;63804;53.120;8.764;2022-10-30T07:16:24;18.92;;;9.30;;
54919;SDS011;63804;53.120;8.764;2022-10-30T07:18:50;20.83;;;9.07;;
54919;SDS011;63804;53.120;8.764;2022-10-30T07:21:15;20.95;;;9.20;;
54919;SDS011;63804;53.120;8.764;2022-10-30T07:23:41;18.23;;;9.05;;
54919;SDS011;63804;53.120;8.764;2022-10-30T07:26:07;20.00;;;9.40;;
54919;SDS011;63804;53.120;8.764;2022-10-30T07:28:32;20.52;;;8.77;;
54919;SDS011;63804;53.120;8.764;2022-10-30T07:30:58;20.70;;;9.63;;
54919;SDS011;63804;53.120;8.764;2022-10-30T07:33:23;17.45;;;8.90;;
54919;SDS011;63804;53.120;8.764;2022-10-30T07:35:49;19.73;;;9.13;;
54919;SDS011;63804;53.120;8.764;2022-10-30T07:38:15;18.17;;;8.75;;
54919;SDS011;63804;53.120;8.764;2022-10-30T07:40:42;18.00;;;9.02;;
54919;SDS011;63804;53.120;8.764;2022-10-30T07:43:08;22.15;;;9.50;;
54919;SDS011;63804;53.120;8.764;2022-10-30T07:45:37;20.60;;;8.68;;
54919;SDS011;63804;53.120;8.764;2022-10-30T07:48:04;20.50;;;9.60;;
54919;SDS011;63804;53.120;8.764;2022-10-30T07:50:30;16.95;;;7.93;;
54919;SDS011;63804;53.120;8.764;2022-10-30T07:52:56;21.38;;;9.00;;
54919;SDS011;63804;53.120;8.764;2022-10-30T07:55:22;18.90;;;9.32;;
54919;SDS011;63804;53.120;8.764;2022-10-30T07:57:48;22.05;;;9.27;;
54919;SDS011;63804;53.120;8.764;2022-10-30T08:00:14;21.70;;;9.00;;
54919;SDS011;63804;53.120;8.764;2022-10-30T08:02:40;22.50;;;9.77;;
54919;SDS011;63804;53.120;8.764;2022-10-30T08:05:06;19.80;;;8.63;;
54919;SDS011;63804;53.120;8.764;2022-10-30T08:07:32;22.02;;;9.77;;
54919;SDS011;63804;53.120;8.764;2022-10-30T08:09:59;16.52;;;8.95;;
54919;SDS011;63804;53.120;8.764;2022-10-30T08:12:25;21.38;;;9.38;;
54919;SDS011;63804;53.120;8.764;2022-10-30T08:14:52;20.85;;;9.52;;
54919;SDS011;63804;53.120;8.764;2022-10-30T08:17:18;18.58;;;9.90;;
54919;SDS011;63804;53.120;8.764;2022-10-30T08:19:44;23.33;;;9.23;;
54919;SDS011;63804;53.120;8.764;2022-10-30T08:22:10;20.77;;;9.68;;
54919;SDS011;63804;53.120;8.764;2022-10-30T08:24:36;23.58;;;9.25;;
54919;SDS011;63804;53.120;8.764;2022-10-30T08:27:02;21.13;;;9.13;;
54919;SDS011;63804;53.120;8.764;2022-10-30T08:29:28;19.20;;;9.55;;
54919;SDS011;63804;53.120;8.764;2022-10-30T08:31:54;17.90;;;8.90;;
54919;SDS011;63804;53.120;8.764;2022-10-30T08:34:20;23.58;;;10.07;;
54919;SDS011;63804;53.120;8.764;2022-10-30T08:36:49;28.00;;;10.73;;
54919;SDS011;63804;53.120;8.764;2022-10-30T08:39:16;20.13;;;8.93;;
54919;SDS011;63804;53.120;8.764;2022-10-30T08:41:42;21.30;;;9.48;;
54919;SDS011;63804;53.120;8.764;2022-10-30T08:44:09;20.70;;;9.25;;
54919;SDS011;63804;53.120;8.764;2022-10-30T08:46:35;23.42;;;10.00;;
54919;SDS011;63804;53.120;8.764;2022-10-30T08:49:04;26.67;;;9.60;;
54919;SDS011;63804;53.120;8.764;2022-10-30T08:51:33;21.90;;;10.30;;
54919;SDS011;63804;53.120;8.764;2022-10-30T08:53:59;19.55;;;9.77;;
54919;SDS011;63804;53.120;8.764;2022-10-30T08:56:25;20.65;;;9.90;;
54919;SDS011;63804;53.120;8.764;2022-10-30T08:58:52;23.63;;;9.85;;
54919;SDS011;63804;53.120;8.764;2022-10-30T09:01:17;19.52;;;9.38;;
54919;SDS011;63804;53.120;8.764;2022-10-30T09:03:44;21.63;;;10.35;;
54919;SDS011;63804;53.120;8.764;2022-10-30T09:06:10;21.83;;;9.60;;
54919;SDS011;63804;53.120;8.764;2022-10-30T09:08:36;26.80;;;10.85;;
54919;SDS011;63804;53.120;8.764;2022-10-30T09:11:02;25.98;;;10.77;;
54919;SDS011;63804;53.120;8.764;2022-10-30T09:13:28;23.95;;;10.13;;
54919;SDS011;63804;53.120;8.764;2022-10-30T09:15:57;23.35;;;10.13;;
54919;SDS011;63804;53.120;8.764;2022-10-30T09:18:25;22.58;;;10.32;;
54919;SDS011;63804;53.120;8.764;2022-10-30T09:20:50;20.35;;;10.25;;
54919;SDS011;63804;53.120;8.764;2022-10-30T09:23:16;20.42;;;10.18;;
54919;SDS011;63804;53.120;8.764;2022-10-30T09:25:41;23.80;;;10.10;;
54919;SDS011;63804;53.120;8.764;2022-10-30T09:28:07;24.80;;;10.90;;
54919;SDS011;63804;53.120;8.764;2022-10-30T09:30:33;28.23;;;11.05;;
54919;SDS011;63804;53.120;8.764;2022-10-30T09:32:59;23.25;;;10.20;;
54919;SDS011;63804;53.120;8.764;2022-10-30T09:35:26;23.83;;;9.70;;
54919;SDS011;63804;53.120;8.764;2022-10-30T09:37:53;19.75;;;10.32;;
54919;SDS011;63804;53.120;8.764;2022-10-30T09:43:08;19.45;;;10.40;;
54919;SDS011;63804;53.120;8.764;2022-10-30T09:45:57;23.38;;;10.30;;
54919;SDS011;63804;53.120;8.764;2022-10-30T09:54:22;26.20;;;12.85;;
54919;SDS011;63804;53.120;8.764;2022-10-30T09:57:03;22.95;;;10.65;;
54919;SDS011;63804;53.120;8.764;2022-10-30T10:02:35;24.83;;;10.68;;
54919;SDS011;63804;53.120;8.764;2022-10-30T10:05:28;20.95;;;11.60;;
54919;SDS011;63804;53.120;8.764;2022-10-30T10:07:57;22.58;;;11.73;;
54919;SDS011;63804;53.120;8.764;2022-10-30T10:10:33;25.05;;;11.45;;
54919;SDS011;63804;53.120;8.764;2022-10-30T10:13:03;23.52;;;11.13;;
54919;SDS011;63804;53.120;8.764;2022-10-30T10:18:00;21.02;;;9.95;;
54919;SDS011;63804;53.120;8.764;2022-10-30T10:20:33;23.23;;;10.55;;
54919;SDS011;63804;53.120;8.764;2022-10-30T10:23:03;20.83;;;10.15;;
54919;SDS011;63804;53.120;8.764;2022-10-30T10:25:39;19.98;;;10.23;;
54919;SDS011;63804;53.120;8.764;2022-10-30T10:28:24;21.15;;;10.05;;
54919;SDS011;63804;53.120;8.764;2022-10-30T10:31:11;26.67;;;10.57;;
54919;SDS011;63804;53.120;8.764;2022-10-30T10:33:59;21.58;;;9.88;;
54919;SDS011;63804;53.120;8.764;2022-10-30T10:36:39;22.83;;;9.57;;
54919;SDS011;63804;53.120;8.764;2022-10-30T10:50:18;21.70;;;9.77;;
54919;SDS011;63804;53.120;8.764;2022-10-30T10:55:34;22.35;;;9.65;;
54919;SDS011;63804;53.120;8.764;2022-10-30T10:58:05;20.27;;;9.73;;
54919;SDS011;63804;53.120;8.764;2022-10-30T11:00:37;23.35;;;9.55;;
54919;SDS011;63804;53.120;8.764;2022-10-30T11:03:15;23.45;;;10.18;;
54919;SDS011;63804;53.120;8.764;2022-10-30T11:10:55;26.13;;;9.77;;
54919;SDS011;63804;53.120;8.764;2022-10-30T11:13:22;25.38;;;10.30;;
54919;SDS011;63804;53.120;8.764;2022-10-30T11:21:12;21.08;;;8.88;;
54919;SDS011;63804;53.120;8.764;2022-10-30T11:23:43;22.30;;;9.32;;
54919;SDS011;63804;53.120;8.764;2022-10-30T11:28:47;19.48;;;8.85;;
54919;SDS011;63804;53.120;8.764;2022-10-30T11:31:35;20.92;;;8.90;;
54919;SDS011;63804;53.120;8.764;2022-10-30T11:36:42;20.75;;;9.15;;
54919;SDS011;63804;53.120;8.764;2022-10-30T11:39:16;19.88;;;9.18;;
54919;SDS011;63804;53.120;8.764;2022-10-30T11:42:03;17.30;;;8.48;;
54919;SDS011;63804;53.120;8.764;2022-10-30T11:47:20;17.45;;;8.25;;
54919;SDS011;63804;53.120;8.764;2022-10-30T11:49:52;19.95;;;8.13;;
54919;SDS011;63804;53.120;8.764;2022-10-30T11:52:21;21.20;;;8.68;;
54919;SDS011;63804;53.120;8.764;2022-10-30T11:54:49;20.88;;;9.07;;
54919;SDS011;63804;53.120;8.764;2022-10-30T11:57:31;23.98;;;8.68;;
54919;SDS011;63804;53.120;8.764;2022-10-30T12:00:00;21.55;;;8.55;;
54919;SDS011;63804;53.120;8.764;2022-10-30T12:02:28;18.23;;;8.10;;
54919;SDS011;63804;53.120;8.764;2022-10-30T12:05:13;21.70;;;8.80;;
54919;SDS011;63804;53.120;8.764;2022-10-30T12:07:49;17.55;;;7.55;;
54919;SDS011;63804;53.120;8.764;2022-10-30T12:10:24;16.80;;;7.20;;
54919;SDS011;63804;53.120;8.764;2022-10-30T12:12:51;23.95;;;8.77;;
54919;SDS011;63804;53.120;8.764;2022-10-30T12:15:24;22.52;;;8.70;;
54919;SDS011;63804;53.120;8.764;2022-10-30T12:17:54;21.92;;;8.48;;
54919;SDS011;63804;53.120;8.764;2022-10-30T12:20:24;23.23;;;8.13;;
54919;SDS011;63804;53.120;8.764;2022-10-30T12:22:50;20.67;;;8.23;;
54919;SDS011;63804;53.120;8.764;2022-10-30T12:25:25;18.42;;;7.93;;
54919;SDS011;63804;53.120;8.764;2022-10-30T12:27:58;20.10;;;8.10;;
54919;SDS011;63804;53.120;8.764;2022-10-30T12:30:25;23.15;;;8.20;;
54919;SDS011;63804;53.120;8.764;2022-10-30T12:32:56;15.75;;;7.75;;
54919;SDS011;63804;53.120;8.764;2022-10-30T12:38:12;23.27;;;8.43;;
54919;SDS011;63804;53.120;8.764;2022-10-30T12:40:48;19.20;;;8.38;;
54919;SDS011;63804;53.120;8.764;2022-10-30T12:43:26;18.77;;;7.90;;
54919;SDS011;63804;53.120;8.764;2022-10-30T12:45:53;18.00;;;7.68;;
54919;SDS011;63804;53.120;8.764;2022-10-30T12:51:31;18.52;;;8.25;;
54919;SDS011;63804;53.120;8.764;2022-10-30T12:54:04;19.17;;;7.03;;
54919;SDS011;63804;53.120;8.764;2022-10-30T12:56:47;21.02;;;8.15;;
54919;SDS011;63804;53.120;8.764;2022-10-30T13:02:25;18.58;;;7.53;;
54919;SDS011;63804;53.120;8.764;2022-10-30T13:04:54;17.33;;;8.00;;
54919;SDS011;63804;53.120;8.764;2022-10-30T13:13:02;22.38;;;8.50;;
54919;SDS011;63804;53.120;8.764;2022-10-30T13:15:42;21.08;;;8.27;;
54919;SDS011;63804;53.120;8.764;2022-10-30T13:18:22;17.35;;;7.57;;
54919;SDS011;63804;53.120;8.764;2022-10-30T13:21:06;19.13;;;7.90;;
54919;SDS011;63804;53.120;8.764;2022-10-30T13:24:01;17.42;;;8.10;;
54919;SDS011;63804;53.120;8.764;2022-10-30T13:29:16;15.57;;;6.90;;
54919;SDS011;63804;53.120;8.764;2022-10-30T13:31:51;20.30;;;7.68;;
54919;SDS011;63804;53.120;8.764;2022-10-30T13:39:44;20.10;;;8.00;;
54919;SDS011;63804;53.120;8.764;2022-10-30T13:45:05;20.55;;;8.10;;
54919;SDS011;63804;53.120;8.764;2022-10-30T13:53:17;19.42;;;8.23;;
54919;SDS011;63804;53.120;8.764;2022-10-30T13:55:48;17.10;;;7.28;;
54919;SDS011;63804;53.120;8.764;2022-10-30T13:58:19;22.70;;;8.10;;
54919;SDS011;63804;53.120;8.764;2022-10-30T14:03:41;21.92;;;9.05;;
54919;SDS011;63804;53.120;8.764;2022-10-30T14:06:09;19.83;;;8.10;;
54919;SDS011;63804;53.120;8.764;2022-10-30T14:08:43;17.67;;;7.75;;
54919;SDS011;63804;53.120;8.764;2022-10-30T14:11:21;20.40;;;8.77;;
54919;SDS011;63804;53.120;8.764;2022-10-30T14:13:50;20.40;;;8.70;;
54919;SDS011;63804;53.120;8.764;2022-10-30T14:18:59;19.95;;;8.13;;
54919;SDS011;63804;53.120;8.764;2022-10-30T14:24:12;22.30;;;8.60;;
54919;SDS011;63804;53.120;8.764;2022-10-30T14:26:44;20.75;;;8.00;;
54919;SDS011;63804;53.120;8.764;2022-10-30T14:31:56;21.60;;;8.13;;
54919;SDS011;63804;53.120;8.764;2022-10-30T14:35:23;19.15;;;8.30;;
54919;SDS011;63804;53.120;8.764;2022-10-30T14:37:53;19.13;;;8.15;;
54919;SDS011;63804;53.120;8.764;2022-10-30T14:43:02;20.75;;;8.75;;
54919;SDS011;63804;53.120;8.764;2022-10-30T14:45:40;22.93;;;8.63;;
54919;SDS011;63804;53.120;8.764;2022-10-30T14:48:14;20.35;;;8.70;;
54919;SDS011;63804;53.120;8.764;2022-10-30T14:50:56;21.17;;;9.00;;
54919;SDS011;63804;53.120;8.764;2022-10-30T14:56:45;19.63;;;7.90;;
54919;SDS011;63804;53.120;8.764;2022-10-30T15:01:43;17.95;;;8.10;;
54919;SDS011;63804;53.120;8.764;2022-10-30T15:15:17;22.45;;;8.93;;
54919;SDS011;63804;53.120;8.764;2022-10-30T15:17:50;23.92;;;10.65;;
54919;SDS011;63804;53.120;8.764;2022-10-30T15:20:26;18.48;;;9.07;;
54919;SDS011;63804;53.120;8.764;2022-10-30T15:22:56;21.75;;;11.32;;
54919;SDS011;63804;53.120;8.764;2022-10-30T15:25:28;24.00;;;11.02;;
54919;SDS011;63804;53.120;8.764;2022-10-30T15:27:58;21.73;;;10.15;;
54919;SDS011;63804;53.120;8.764;2022-10-30T15:30:25;21.95;;;10.90;;
54919;SDS011;63804;53.120;8.764;2022-10-30T15:32:51;27.33;;;11.63;;
54919;SDS011;63804;53.120;8.764;2022-10-30T15:35:21;27.65;;;11.32;;
54919;SDS011;63804;53.120;8.764;2022-10-30T15:37:57;21.42;;;10.85;;
54919;SDS011;63804;53.120;8.764;2022-10-30T15:40:30;22.13;;;11.40;;
54919;SDS011;63804;53.120;8.764;2022-10-30T15:42:58;22.67;;;10.43;;
54919;SDS011;63804;53.120;8.764;2022-10-30T15:45:31;21.27;;;9.93;;
54919;SDS011;63804;53.120;8.764;2022-10-30T15:48:16;22.23;;;10.52;;
54919;SDS011;63804;53.120;8.764;2022-10-30T15:51:00;25.33;;;11.65;;
54919;SDS011;63804;53.120;8.764;2022-10-30T15:53:50;26.90;;;10.95;;
54919;SDS011;63804;53.120;8.764;2022-10-30T15:56:21;19.25;;;10.40;;
54919;SDS011;63804;53.120;8.764;2022-10-30T15:59:12;25.90;;;11.77;;
54919;SDS011;63804;53.120;8.764;2022-10-30T16:01:44;24.08;;;11.48;;
54919;SDS011;63804;53.120;8.764;2022-10-30T16:04:15;22.15;;;10.63;;
54919;SDS011;63804;53.120;8.764;2022-10-30T16:06:55;23.52;;;10.75;;
54919;SDS011;63804;53.120;8.764;2022-10-30T16:09:24;21.92;;;10.90;;
54919;SDS011;63804;53.120;8.764;2022-10-30T16:11:51;19.88;;;10.98;;
54919;SDS011;63804;53.120;8.764;2022-10-30T16:14:20;23.52;;;10.98;;
54919;SDS011;63804;53.120;8.764;2022-10-30T16:16:49;23.00;;;10.82;;
54919;SDS011;63804;53.120;8.764;2022-10-30T16:19:22;20.88;;;10.23;;
54919;SDS011;63804;53.120;8.764;2022-10-30T16:21:51;25.77;;;11.73;;
54919;SDS011;63804;53.120;8.764;2022-10-30T16:24:18;22.17;;;11.38;;
54919;SDS011;63804;53.120;8.764;2022-10-30T16:27:06;24.58;;;11.77;;
54919;SDS011;63804;53.120;8.764;2022-10-30T16:29:39;22.88;;;11.23;;
54919;SDS011;63804;53.120;8.764;2022-10-30T16:32:10;21.45;;;10.57;;
54919;SDS011;63804;53.120;8.764;2022-10-30T16:34:39;25.23;;;11.38;;
54919;SDS011;63804;53.120;8.764;2022-10-30T16:37:16;29.25;;;13.15;;
54919;SDS011;63804;53.120;8.764;2022-10-30T16:39:43;29.30;;;13.50;;
54919;SDS011;63804;53.120;8.764;2022-10-30T16:42:17;31.85;;;13.48;;
54919;SDS011;63804;53.120;8.764;2022-10-30T16:44:47;27.65;;;13.43;;
54919;SDS011;63804;53.120;8.764;2022-10-30T16:49:45;27.33;;;13.98;;
54919;SDS011;63804;53.120;8.764;2022-10-30T16:52:25;25.63;;;13.30;;
54919;SDS011;63804;53.120;8.764;2022-10-30T16:54:58;31.42;;;14.10;;
54919;SDS011;63804;53.120;8.764;2022-10-30T16:57:40;36.55;;;15.07;;
54919;SDS011;63804;53.120;8.764;2022-10-30T17:00:16;33.58;;;14.20;;
54919;SDS011;63804;53.120;8.764;2022-10-30T17:02:49;34.33;;;15.25;;